Time;durP1;ratioP1;P1;durP2;ratioP2;P2;SDS_P1;SDS_P2;PMS_P1;PMS_P2;Temp;Humidity;BMP_temperature;BMP_pressure;BME280_temperature;BME280_humidity;BME280_pressure;Samples;Min_cycle;Max_cycle;Signal;HPM_P1;HPM_P2
2023/07/19 00:02:25;;;;;;;5.50;2.63;;;;;;;11.35;100.00;101225.59;10435254;28;20045;-77
2023/07/19 00:07:25;;;;;;;4.13;2.85;;;;;;;11.36;100.00;101223.91;10473924;28;20071;-78
2023/07/19 00:12:26;;;;;;;4.85;3.05;;;;;;;11.33;100.00;101218.50;10457738;28;20446;-78
2023/07/19 00:17:27;;;;;;;19.95;3.88;;;;;;;11.26;100.00;101212.94;10442478;28;20036;-77
2023/07/19 00:22:27;;;;;;;8.98;3.90;;;;;;;11.26;100.00;101212.94;10443116;28;20059;-77
2023/07/19 00:27:28;;;;;;;8.20;4.18;;;;;;;11.25;100.00;101213.78;10441436;28;20108;-78
2023/07/19 00:32:28;;;;;;;8.73;4.25;;;;;;;11.20;100.00;101215.25;10433855;28;20040;-78
2023/07/19 00:37:29;;;;;;;5.05;3.53;;;;;;;11.06;100.00;101213.66;10440073;28;20408;-78
2023/07/19 00:42:30;;;;;;;11.35;4.53;;;;;;;11.01;100.00;101216.94;10440011;28;20136;-78
2023/07/19 00:47:31;;;;;;;7.30;4.22;;;;;;;10.93;100.00;101212.13;10440853;28;20037;-78
2023/07/19 00:52:32;;;;;;;14.15;4.82;;;;;;;10.85;100.00;101224.81;10446153;28;20065;-78
2023/07/19 00:57:32;;;;;;;8.73;4.45;;;;;;;10.78;100.00;101218.34;10432394;28;20136;-78
2023/07/19 01:02:33;;;;;;;9.10;5.35;;;;;;;10.85;100.00;101227.44;10431813;28;20037;-78
2023/07/19 01:07:33;;;;;;;7.75;4.93;;;;;;;10.84;100.00;101231.75;10426336;28;20040;-78
2023/07/19 01:12:34;;;;;;;38.05;7.45;;;;;;;10.87;100.00;101228.44;10407530;28;20033;-78
2023/07/19 01:17:35;;;;;;;11.85;6.97;;;;;;;10.95;100.00;101220.94;10448120;28;20403;-78
2023/07/19 01:22:36;;;;;;;11.83;5.00;;;;;;;10.95;100.00;101216.63;10431205;28;20447;-77
2023/07/19 01:27:37;;;;;;;8.85;5.20;;;;;;;10.99;100.00;101215.97;10429777;28;20090;-77
2023/07/19 01:32:37;;;;;;;12.73;5.70;;;;;;;10.92;100.00;101228.66;10429815;28;20041;-77
2023/07/19 01:37:38;;;;;;;8.85;6.05;;;;;;;10.84;100.00;101221.28;10447818;28;20473;-78
2023/07/19 01:42:39;;;;;;;13.23;8.73;;;;;;;10.78;100.00;101215.72;10427081;28;20048;-77
2023/07/19 01:47:39;;;;;;;17.07;10.23;;;;;;;10.76;100.00;101220.00;10451076;28;20064;-78
2023/07/19 01:52:40;;;;;;;17.73;11.55;;;;;;;10.91;100.00;101213.75;10446796;28;20044;-77
2023/07/19 01:57:40;;;;;;;20.17;12.27;;;;;;;11.13;100.00;101210.53;10447844;28;20060;-77
2023/07/19 02:02:41;;;;;;;15.30;11.93;;;;;;;11.21;100.00;101211.81;10448093;28;20047;-77
2023/07/19 02:07:42;;;;;;;12.50;9.70;;;;;;;11.27;100.00;101206.88;10428777;28;20144;-77
2023/07/19 02:12:42;;;;;;;16.48;7.78;;;;;;;11.41;100.00;101186.59;10446999;28;20116;-77
2023/07/19 02:17:43;;;;;;;8.98;6.70;;;;;;;11.43;100.00;101189.31;10445613;28;20497;-77
2023/07/19 02:22:43;;;;;;;12.10;7.80;;;;;;;11.38;100.00;101189.06;10447004;28;20037;-77
2023/07/19 02:27:44;;;;;;;13.27;8.35;;;;;;;11.43;100.00;101182.34;10445460;28;20114;-78
2023/07/19 02:32:44;;;;;;;13.32;8.27;;;;;;;11.42;100.00;101182.28;10445137;28;20609;-77
2023/07/19 02:37:45;;;;;;;13.57;7.07;;;;;;;11.34;100.00;101188.84;10446703;28;20082;-77
2023/07/19 02:42:45;;;;;;;13.43;7.97;;;;;;;11.30;100.00;101180.84;10416047;28;20128;-77
2023/07/19 02:47:46;;;;;;;12.10;7.32;;;;;;;11.40;100.00;101176.06;10426422;28;20451;-77
2023/07/19 02:52:47;;;;;;;13.55;6.45;;;;;;;11.46;100.00;101165.88;10413434;28;20097;-77
2023/07/19 02:57:48;;;;;;;13.98;7.78;;;;;;;11.52;100.00;101168.78;10445269;28;20043;-76
2023/07/19 03:02:53;;;;;;;12.77;8.55;;;;;;;11.51;100.00;101166.09;10445772;28;20049;-77
2023/07/19 03:07:54;;;;;;;11.63;6.40;;;;;;;11.42;100.00;101169.16;10445116;28;20076;-77
2023/07/19 03:12:54;;;;;;;12.90;6.28;;;;;;;11.47;100.00;101172.91;10441692;28;20512;-78
2023/07/19 03:17:55;;;;;;;10.52;7.07;;;;;;;11.60;100.00;101175.31;10426588;28;20078;-78
2023/07/19 03:22:55;;;;;;;13.20;7.28;;;;;;;11.59;100.00;101165.66;10426480;28;20102;-77
2023/07/19 03:27:56;;;;;;;10.10;7.15;;;;;;;11.46;100.00;101168.50;10443890;28;20045;-77
2023/07/19 03:32:57;;;;;;;11.23;5.88;;;;;;;11.34;100.00;101178.38;10426352;28;20060;-77
2023/07/19 03:37:57;;;;;;;13.30;7.63;;;;;;;11.29;100.00;101168.56;10425412;28;20067;-77
2023/07/19 03:42:58;;;;;;;9.43;6.35;;;;;;;11.34;100.00;101181.88;10433695;28;20407;-77
2023/07/19 03:47:58;;;;;;;11.27;7.30;;;;;;;11.30;100.00;101167.75;10442558;28;20075;-77
2023/07/19 03:52:59;;;;;;;11.48;7.20;;;;;;;11.23;100.00;101170.88;10416861;28;20040;-78
2023/07/19 03:57:59;;;;;;;12.60;8.68;;;;;;;11.22;100.00;101174.31;10442359;28;20040;-77
2023/07/19 04:03:00;;;;;;;11.07;7.93;;;;;;;11.28;100.00;101189.44;10444272;28;20246;-77
2023/07/19 04:08:01;;;;;;;14.52;10.48;;;;;;;11.49;100.00;101196.56;10438849;28;20041;-77
2023/07/19 04:13:02;;;;;;;11.40;8.90;;;;;;;11.69;100.00;101185.31;10426953;28;20152;-77
2023/07/19 04:18:02;;;;;;;13.23;8.15;;;;;;;11.79;100.00;101191.00;10441076;28;20033;-77
2023/07/19 04:23:03;;;;;;;15.35;10.02;;;;;;;11.90;100.00;101181.94;10441266;28;20045;-78
2023/07/19 04:28:04;;;;;;;9.15;6.63;;;;;;;12.03;100.00;101194.81;10421921;28;20391;-77
2023/07/19 04:33:04;;;;;;;8.82;5.88;;;;;;;12.08;100.00;101173.16;10423550;28;20037;-77
2023/07/19 04:38:05;;;;;;;9.48;5.43;;;;;;;12.17;100.00;101178.81;10438437;28;20044;-77
2023/07/19 04:43:06;;;;;;;8.77;4.45;;;;;;;12.32;100.00;101169.03;10438277;28;20041;-77
2023/07/19 04:48:06;;;;;;;9.43;4.80;;;;;;;12.46;100.00;101168.75;10473252;28;20559;-76
2023/07/19 04:53:07;;;;;;;10.90;4.72;;;;;;;12.65;100.00;101180.06;10439888;28;20047;-76
2023/07/19 04:58:07;;;;;;;33.25;5.90;;;;;;;12.82;100.00;101179.09;10419589;28;20485;-77
2023/07/19 05:03:08;;;;;;;8.93;4.00;;;;;;;12.96;100.00;101178.78;10439405;28;20049;-76
2023/07/19 05:08:08;;;;;;;9.73;5.03;;;;;;;13.07;100.00;101180.13;10427136;28;20103;-77
2023/07/19 05:13:09;;;;;;;10.38;6.07;;;;;;;13.25;100.00;101172.16;10439087;28;20037;-76
2023/07/19 05:18:09;;;;;;;9.10;6.35;;;;;;;13.41;100.00;101168.41;10439749;28;20043;-77
2023/07/19 05:23:11;;;;;;;10.25;4.60;;;;;;;13.51;100.00;101178.50;10440523;28;20788;-77
2023/07/19 05:28:12;;;;;;;7.95;4.93;;;;;;;13.81;100.00;101190.19;10440166;28;20037;-77
2023/07/19 05:33:12;;;;;;;15.27;6.97;;;;;;;14.12;100.00;101182.59;10437955;28;20068;-77
2023/07/19 05:38:13;;;;;;;9.75;5.00;;;;;;;14.32;100.00;101176.34;10426978;28;20037;-77
2023/07/19 05:43:13;;;;;;;9.20;4.93;;;;;;;14.45;100.00;101182.97;10430208;28;20454;-77
2023/07/19 05:48:14;;;;;;;8.02;3.63;;;;;;;14.62;100.00;101175.66;10447936;28;20051;-76
2023/07/19 05:53:14;;;;;;;8.93;4.72;;;;;;;14.80;100.00;101178.09;10434551;28;20045;-77
2023/07/19 05:58:15;;;;;;;9.35;5.35;;;;;;;15.09;100.00;101174.66;10468992;28;20107;-77
2023/07/19 06:03:16;;;;;;;10.82;5.50;;;;;;;15.49;100.00;101177.75;10448848;28;20057;-77
2023/07/19 06:08:16;;;;;;;9.70;5.47;;;;;;;15.74;100.00;101168.84;10446443;28;20043;-77
2023/07/19 06:13:17;;;;;;;9.07;4.65;;;;;;;15.96;100.00;101173.09;10428110;28;20049;-77
2023/07/19 06:18:18;;;;;;;9.35;4.65;;;;;;;16.20;100.00;101176.41;10432174;28;20110;-77
2023/07/19 06:23:18;;;;;;;6.85;5.20;;;;;;;16.53;100.00;101173.88;10424709;28;20546;-77
2023/07/19 06:28:19;;;;;;;12.90;6.03;;;;;;;16.76;100.00;101159.47;10435768;28;20037;-78
2023/07/19 06:33:19;;;;;;;8.57;4.55;;;;;;;16.61;100.00;101155.56;10447067;28;20174;-77
2023/07/19 06:38:20;;;;;;;13.00;6.07;;;;;;;16.48;100.00;101164.00;10447131;28;20041;-78
2023/07/19 06:43:20;;;;;;;11.50;5.85;;;;;;;16.70;100.00;101171.69;10439383;28;20086;-76
2023/07/19 06:48:21;;;;;;;13.57;7.55;;;;;;;17.17;100.00;101171.19;10423036;28;20055;-77
2023/07/19 06:53:21;;;;;;;16.00;6.32;;;;;;;17.64;100.00;101169.66;10444273;28;20029;-77
2023/07/19 06:58:22;;;;;;;10.10;5.60;;;;;;;18.07;100.00;101163.56;10447206;28;20051;-77
2023/07/19 07:03:22;;;;;;;7.95;4.88;;;;;;;18.19;100.00;101164.72;10461362;28;20051;-77
2023/07/19 07:08:24;;;;;;;15.38;6.70;;;;;;;18.28;100.00;101161.38;10485513;28;20082;-77
2023/07/19 07:13:25;;;;;;;9.25;6.72;;;;;;;18.84;100.00;101158.88;10468606;28;20032;-76
2023/07/19 07:18:25;;;;;;;10.00;6.55;;;;;;;19.46;100.00;101155.56;10484937;28;20045;-77
2023/07/19 07:23:26;;;;;;;11.65;7.03;;;;;;;19.79;100.00;101159.59;10485388;28;20041;-79
2023/07/19 07:28:26;;;;;;;8.50;5.40;;;;;;;19.41;100.00;101166.97;10467193;28;20044;-78
2023/07/19 07:33:27;;;;;;;13.05;7.78;;;;;;;18.61;100.00;101189.41;10441552;28;20087;-77
2023/07/19 07:38:27;;;;;;;10.57;6.32;;;;;;;18.03;100.00;101203.22;10417278;28;20095;-77
2023/07/19 07:43:29;;;;;;;16.80;8.98;;;;;;;17.88;100.00;101222.25;10426006;28;20132;-77
2023/07/19 07:48:30;;;;;;;14.95;7.80;;;;;;;17.80;100.00;101209.72;10418327;28;20128;-77
2023/07/19 07:53:31;;;;;;;13.60;8.88;;;;;;;17.82;100.00;101205.34;10441432;28;20044;-77
2023/07/19 07:58:31;;;;;;;22.33;7.70;;;;;;;17.97;100.00;101191.56;10426143;28;20128;-77
2023/07/19 08:03:32;;;;;;;13.55;7.68;;;;;;;18.42;100.00;101193.44;10440893;28;20051;-77
2023/07/19 08:08:32;;;;;;;9.45;6.57;;;;;;;18.63;100.00;101177.09;10442699;28;20112;-77
2023/07/19 08:13:33;;;;;;;10.73;5.80;;;;;;;19.05;100.00;101174.34;10422851;28;20033;-77
2023/07/19 08:18:34;;;;;;;8.80;4.47;;;;;;;19.76;100.00;101161.28;10441303;28;20045;-77
2023/07/19 08:23:34;;;;;;;8.07;4.30;;;;;;;19.98;100.00;101149.25;10424494;28;20040;-77
2023/07/19 08:28:35;;;;;;;9.38;4.95;;;;;;;19.69;100.00;101159.41;10441943;28;20037;-77
2023/07/19 08:33:35;;;;;;;10.82;4.70;;;;;;;19.32;100.00;101154.44;10454024;28;20060;-78
2023/07/19 08:38:36;;;;;;;11.40;5.40;;;;;;;18.99;100.00;101174.22;10484486;28;20053;-77
2023/07/19 08:43:37;;;;;;;6.32;4.05;;;;;;;18.68;100.00;101161.25;10482676;28;20047;-77
2023/07/19 08:48:37;;;;;;;10.77;4.28;;;;;;;18.78;100.00;101173.81;10465517;28;20446;-77
2023/07/19 08:53:38;;;;;;;8.75;4.53;;;;;;;19.15;100.00;101170.06;10448126;28;20580;-77
2023/07/19 08:58:39;;;;;;;8.63;3.72;;;;;;;19.85;100.00;101163.19;10455492;28;20111;-77
2023/07/19 09:03:40;;;;;;;6.70;3.30;;;;;;;21.12;100.00;101148.72;10482100;28;20032;-77
2023/07/19 09:08:41;;;;;;;7.20;3.63;;;;;;;22.07;100.00;101150.25;10481100;28;20550;-79
2023/07/19 09:13:41;;;;;;;6.37;3.03;;;;;;;22.18;100.00;101141.41;10487606;28;20392;-79
2023/07/19 09:18:42;;;;;;;9.87;4.13;;;;;;;22.06;100.00;101144.91;10490113;28;20087;-78
2023/07/19 09:23:42;;;;;;;6.60;3.50;;;;;;;22.21;100.00;101146.75;10472848;28;20490;-78
2023/07/19 09:28:43;;;;;;;9.00;3.50;;;;;;;22.14;100.00;101141.41;10489964;28;20032;-77
2023/07/19 09:33:43;;;;;;;7.13;3.47;;;;;;;21.64;100.00;101142.91;10488698;28;20123;-78
2023/07/19 09:38:44;;;;;;;10.37;3.97;;;;;;;21.91;100.00;101133.28;10472407;28;20115;-77
2023/07/19 09:43:44;;;;;;;7.77;3.03;;;;;;;22.18;100.00;101134.31;10459737;28;20040;-77
2023/07/19 09:48:45;;;;;;;5.10;2.50;;;;;;;22.26;100.00;101127.22;10478159;28;20110;-77
2023/07/19 09:53:45;;;;;;;8.77;3.17;;;;;;;22.91;100.00;101126.50;10469769;28;20104;-77
2023/07/19 09:58:46;;;;;;;6.83;2.87;;;;;;;23.37;100.00;101122.94;10512752;28;20115;-77
2023/07/19 10:03:47;;;;;;;11.10;3.33;;;;;;;24.67;100.00;101124.25;10505742;27;20123;-77
2023/07/19 10:08:47;;;;;;;8.10;4.40;;;;;;;26.09;98.80;101131.84;10529146;28;20064;-77
2023/07/19 10:13:56;;;;;;;17.20;4.53;;;;;;;25.91;87.96;101127.59;10531530;28;20451;-77
2023/07/19 10:19:13;;;;;;;4.55;2.75;;;;;;;26.92;89.02;101124.44;10518034;28;20181;-76
2023/07/19 10:24:13;;;;;;;7.03;3.58;;;;;;;27.81;74.69;101123.72;10469093;28;20047;-78
2023/07/19 10:29:16;;;;;;;4.47;3.03;;;;;;;26.99;84.68;101118.97;10487233;28;20512;-77
2023/07/19 10:34:29;;;;;;;11.25;2.85;;;;;;;26.20;87.52;101121.91;10461413;28;20041;-76
2023/07/19 10:39:32;;;;;;;8.27;4.07;;;;;;;26.89;80.82;101126.28;10514355;28;20044;-78
2023/07/19 10:44:33;;;;;;;7.40;2.78;;;;;;;26.26;80.02;101122.72;10488929;28;20480;-77
2023/07/19 10:49:33;;;;;;;6.07;3.00;;;;;;;25.59;83.30;101128.84;10485736;28;20050;-77
2023/07/19 10:54:34;;;;;;;8.73;2.97;;;;;;;28.33;80.20;101115.50;10483999;28;20407;-77
2023/07/19 10:59:35;;;;;;;9.50;3.50;;;;;;;28.40;69.65;101114.44;10492824;27;20047;-77
2023/07/19 11:04:35;;;;;;;4.00;2.10;;;;;;;26.65;74.94;101105.13;10483404;28;20045;-77
2023/07/19 11:09:36;;;;;;;8.47;2.03;;;;;;;26.04;73.83;101123.84;10466307;28;20136;-77
2023/07/19 11:14:41;;;;;;;3.83;1.83;;;;;;;26.16;69.73;101113.91;10496334;28;20365;-78
2023/07/19 11:19:41;;;;;;;11.45;6.30;;;;;;;26.00;75.57;101121.25;10466434;28;20396;-77
2023/07/19 11:24:42;;;;;;;9.23;4.17;;;;;;;25.12;71.33;101126.59;10479641;28;20047;-76
2023/07/19 11:29:47;;;;;;;4.83;2.53;;;;;;;23.46;75.06;101125.59;10483960;28;20040;-77
2023/07/19 11:34:52;;;;;;;5.13;1.63;;;;;;;22.94;81.92;101123.84;10463026;28;20160;-77
2023/07/19 11:39:53;;;;;;;4.40;2.00;;;;;;;23.10;85.46;101127.38;10496365;28;20033;-77
2023/07/19 11:44:53;;;;;;;5.97;2.13;;;;;;;24.01;86.90;101125.50;10467193;28;20454;-76
2023/07/19 11:49:54;;;;;;;3.10;1.87;;;;;;;25.27;81.08;101122.91;10486019;28;20312;-77
2023/07/19 11:54:55;;;;;;;4.93;1.77;;;;;;;27.16;76.90;101122.25;10485959;28;20548;-77
2023/07/19 11:59:55;;;;;;;6.00;2.80;;;;;;;26.50;77.80;101124.16;10484543;28;20072;-77
2023/07/19 12:04:56;;;;;;;5.50;2.43;;;;;;;26.58;81.02;101127.63;10479081;28;20036;-76
2023/07/19 12:09:57;;;;;;;7.63;2.93;;;;;;;27.19;75.95;101119.50;10478921;28;20656;-77
2023/07/19 12:15:00;;;;;;;10.50;2.43;;;;;;;27.50;81.72;101120.78;10479958;28;20084;-77
2023/07/19 12:20:01;;;;;;;6.18;2.08;;;;;;;28.26;74.87;101106.69;10453708;28;20053;-78
2023/07/19 12:25:02;;;;;;;7.20;1.93;;;;;;;27.99;69.50;101110.81;10490064;28;20045;-76
2023/07/19 12:30:03;;;;;;;6.43;2.30;;;;;;;26.16;77.97;101108.53;10411178;28;20056;-77
2023/07/19 12:35:03;;;;;;;6.43;2.50;;;;;;;24.96;83.70;101109.78;10394738;28;20045;-76
2023/07/19 12:40:08;;;;;;;7.30;2.67;;;;;;;24.54;85.21;101118.06;10434867;28;20041;-77
2023/07/19 12:45:10;;;;;;;11.02;4.75;;;;;;;24.04;89.22;101104.97;10443373;28;20394;-76
2023/07/19 12:50:11;;;;;;;4.70;3.20;;;;;;;23.12;95.73;101114.06;10448874;28;20040;-75
2023/07/19 12:55:12;;;;;;;9.98;3.42;;;;;;;22.42;100.00;101108.59;10473614;28;20060;-76
2023/07/19 13:00:13;;;;;;;7.77;3.10;;;;;;;22.49;100.00;101107.75;10423175;28;20043;-75
2023/07/19 13:05:14;;;;;;;6.50;3.22;;;;;;;22.66;100.00;101110.47;10441402;28;20493;-75
2023/07/19 13:10:14;;;;;;;7.13;3.60;;;;;;;22.32;100.00;101113.03;10428490;28;20045;-76
2023/07/19 13:15:15;;;;;;;9.57;3.13;;;;;;;21.72;100.00;101119.00;10433351;28;20033;-78
2023/07/19 13:20:15;;;;;;;6.03;4.10;;;;;;;20.93;100.00;101127.28;10440139;28;20053;-77
2023/07/19 13:25:17;;;;;;;6.40;4.20;;;;;;;20.08;100.00;101129.91;10423498;28;20041;-77
2023/07/19 13:30:18;;;;;;;;;;;;;;;19.71;100.00;101129.38;10442203;28;20045;-77
2023/07/19 13:35:18;;;;;;;8.98;3.97;;;;;;;19.80;100.00;101131.25;10444382;28;20352;-77
2023/07/19 13:40:19;;;;;;;9.20;3.28;;;;;;;20.30;100.00;101124.84;10459654;28;20034;-78
2023/07/19 13:45:19;;;;;;;6.25;3.40;;;;;;;21.58;100.00;101124.22;10474949;28;20055;-77
2023/07/19 13:50:20;;;;;;;8.10;3.03;;;;;;;24.66;100.00;101116.22;10479001;28;20094;-78
2023/07/19 13:55:20;;;;;;;3.67;1.73;;;;;;;26.17;99.55;101104.94;10474819;28;20040;-79
2023/07/19 14:00:21;;;;;;;2.30;1.50;;;;;;;26.91;95.13;101082.38;10485276;28;20041;-81
2023/07/19 14:05:22;;;;;;;4.10;1.50;;;;;;;27.41;88.98;101097.59;10474395;28;20098;-80
2023/07/19 14:10:26;;;;;;;7.10;2.50;;;;;;;26.28;84.46;101096.75;10459886;28;20060;-80
2023/07/19 14:15:27;;;;;;;3.53;1.75;;;;;;;26.05;85.60;101093.44;10476431;28;20045;-82
2023/07/19 14:20:29;;;;;;;5.47;2.27;;;;;;;24.49;99.73;101096.72;10446786;28;20497;-80
2023/07/19 14:25:30;;;;;;;7.90;1.60;;;;;;;22.86;100.00;101094.47;10451497;28;20043;-79
2023/07/19 14:30:30;;;;;;;3.03;1.77;;;;;;;21.95;100.00;101100.47;10474719;28;20511;-78
2023/07/19 14:35:31;;;;;;;4.03;1.20;;;;;;;22.08;100.00;101092.50;10486531;28;20425;-78
2023/07/19 14:40:31;;;;;;;3.17;1.60;;;;;;;21.97;100.00;101093.34;10469408;28;20089;-78
2023/07/19 14:45:32;;;;;;;3.00;1.80;;;;;;;21.55;100.00;101086.91;10487124;28;20039;-78
2023/07/19 14:50:32;;;;;;;5.33;2.17;;;;;;;20.95;100.00;101101.59;10485790;28;20036;-79
2023/07/19 14:55:33;;;;;;;8.95;4.20;;;;;;;20.30;100.00;101121.28;10468380;28;20096;-77
2023/07/19 15:00:33;;;;;;;5.00;3.00;;;;;;;19.06;100.00;101123.97;10480863;28;20136;-77
2023/07/19 15:05:34;;;;;;;6.95;2.85;;;;;;;18.45;100.00;101132.56;10427299;28;20037;-77
2023/07/19 15:10:34;;;;;;;7.15;3.38;;;;;;;18.47;100.00;101145.84;10440652;28;20571;-76
2023/07/19 15:15:35;;;;;;;9.75;4.68;;;;;;;18.92;100.00;101147.56;10443265;28;20041;-76
2023/07/19 15:20:36;;;;;;;7.15;4.57;;;;;;;19.64;100.00;101138.13;10441092;28;20068;-76
2023/07/19 15:25:36;;;;;;;7.38;3.67;;;;;;;20.21;100.00;101104.34;10442604;28;20037;-76
2023/07/19 15:30:37;;;;;;;7.68;3.58;;;;;;;20.59;100.00;101099.44;10416223;28;20071;-76
2023/07/19 15:35:37;;;;;;;6.25;3.55;;;;;;;20.27;100.00;101084.03;10430377;28;20132;-77
2023/07/19 15:40:38;;;;;;;5.88;3.05;;;;;;;20.07;100.00;101090.00;10443184;28;20052;-76
2023/07/19 15:45:38;;;;;;;6.78;3.35;;;;;;;20.14;100.00;101085.69;10438163;28;20065;-76
2023/07/19 15:50:39;;;;;;;7.30;3.30;;;;;;;20.35;100.00;101085.00;10431171;28;20067;-76
2023/07/19 15:55:39;;;;;;;7.45;2.90;;;;;;;21.11;100.00;101093.72;10423317;28;20549;-77
2023/07/19 16:00:41;;;;;;;8.90;3.53;;;;;;;21.27;100.00;101097.38;10429377;28;20362;-77
2023/07/19 16:05:41;;;;;;;5.65;3.05;;;;;;;21.36;100.00;101102.75;10433050;28;20095;-77
2023/07/19 16:10:42;;;;;;;6.28;3.92;;;;;;;21.17;100.00;101093.78;10440144;28;20066;-76
2023/07/19 16:15:43;;;;;;;13.23;3.87;;;;;;;20.97;100.00;101093.59;10441925;28;20067;-77
2023/07/19 16:20:43;;;;;;;16.80;3.47;;;;;;;20.80;100.00;101099.66;10439785;28;20041;-76
2023/07/19 16:25:44;;;;;;;5.00;3.23;;;;;;;20.56;100.00;101097.66;10442320;28;20074;-77
2023/07/19 16:30:44;;;;;;;6.65;2.65;;;;;;;20.26;100.00;101101.75;10440312;28;20044;-77
2023/07/19 16:35:45;;;;;;;5.85;2.67;;;;;;;20.12;100.00;101108.69;10431919;28;20041;-78
2023/07/19 16:40:45;;;;;;;5.93;2.85;;;;;;;19.99;100.00;101105.88;10440281;28;20041;-78
2023/07/19 16:45:46;;;;;;;8.23;2.85;;;;;;;19.86;100.00;101118.06;10460019;28;20036;-78
2023/07/19 16:50:47;;;;;;;5.25;2.05;;;;;;;19.84;100.00;101125.13;10480526;28;20199;-78
2023/07/19 16:55:47;;;;;;;7.00;2.75;;;;;;;19.78;100.00;101120.63;10452743;28;20537;-78
2023/07/19 17:00:48;;;;;;;5.10;1.92;;;;;;;19.82;100.00;101118.88;10457984;28;20092;-78
2023/07/19 17:05:48;;;;;;;5.38;2.42;;;;;;;19.77;100.00;101125.91;10385612;28;20106;-78
2023/07/19 17:10:49;;;;;;;11.77;7.18;;;;;;;19.54;100.00;101129.13;10437599;28;20037;-77
2023/07/19 17:15:50;;;;;;;16.05;8.75;;;;;;;19.49;100.00;101126.41;10421880;28;20055;-77
2023/07/19 17:20:50;;;;;;;5.95;2.80;;;;;;;19.54;100.00;101136.22;10441404;28;20519;-77
2023/07/19 17:25:51;;;;;;;4.90;2.95;;;;;;;19.65;100.00;101134.59;10422213;28;20037;-77
2023/07/19 17:30:51;;;;;;;8.30;4.20;;;;;;;19.48;100.00;101137.00;10412317;28;20053;-77
2023/07/19 17:35:52;;;;;;;10.48;4.25;;;;;;;19.37;100.00;101135.06;10445560;28;20112;-77
2023/07/19 17:40:52;;;;;;;6.25;3.65;;;;;;;19.29;100.00;101135.81;10447783;28;20043;-77
2023/07/19 17:45:53;;;;;;;4.80;2.72;;;;;;;19.24;100.00;101137.50;10449212;28;20037;-77
2023/07/19 17:50:53;;;;;;;5.80;3.42;;;;;;;19.18;100.00;101136.53;10447268;28;20052;-78
2023/07/19 17:55:54;;;;;;;7.95;3.53;;;;;;;19.03;100.00;101147.78;10446492;28;20371;-78
2023/07/19 18:00:55;;;;;;;8.18;3.22;;;;;;;18.95;100.00;101146.72;10424324;28;20049;-77
2023/07/19 18:05:56;;;;;;;8.82;3.20;;;;;;;18.88;100.00;101151.03;10418653;28;20493;-77
2023/07/19 18:10:56;;;;;;;7.60;2.33;;;;;;;18.84;100.00;101159.81;10438899;28;20136;-76
2023/07/19 18:15:57;;;;;;;4.22;2.63;;;;;;;18.73;100.00;101146.31;10416017;28;20041;-78
2023/07/19 18:20:58;;;;;;;7.57;2.42;;;;;;;18.57;100.00;101154.84;10447668;28;20036;-77
2023/07/19 18:25:58;;;;;;;6.07;2.42;;;;;;;18.48;100.00;101156.47;10412598;28;20130;-77
2023/07/19 18:30:59;;;;;;;8.40;2.28;;;;;;;18.45;100.00;101156.41;10445583;28;20045;-77
2023/07/19 18:35:59;;;;;;;7.75;2.10;;;;;;;18.41;100.00;101157.19;10444129;28;20040;-76
2023/07/19 18:41:00;;;;;;;6.32;2.30;;;;;;;18.35;100.00;101154.44;10469245;28;20068;-77
2023/07/19 18:46:00;;;;;;;3.67;2.42;;;;;;;18.25;100.00;101163.97;10487454;28;20124;-76
2023/07/19 18:51:01;;;;;;;6.63;3.97;;;;;;;18.17;100.00;101165.56;10460638;28;20063;-77
2023/07/19 18:56:03;;;;;;;10.68;3.25;;;;;;;18.07;100.00;101166.22;10456646;28;20040;-76
2023/07/19 19:01:04;;;;;;;4.63;2.63;;;;;;;18.00;100.00;101170.47;10439469;28;20037;-77
2023/07/19 19:06:04;;;;;;;4.40;2.47;;;;;;;17.88;100.00;101169.31;10426453;28;20609;-76
2023/07/19 19:11:05;;;;;;;3.90;2.47;;;;;;;17.74;100.00;101169.00;10442489;28;20135;-76
2023/07/19 19:16:05;;;;;;;3.78;2.35;;;;;;;17.56;100.00;101177.41;10426009;28;20047;-76
2023/07/19 19:21:06;;;;;;;4.15;2.15;;;;;;;17.39;100.00;101177.00;10423264;28;20370;-76
2023/07/19 19:26:08;;;;;;;6.60;2.28;;;;;;;17.26;100.00;101183.72;10409572;28;20030;-77
2023/07/19 19:31:09;;;;;;;10.38;3.42;;;;;;;17.12;100.00;101185.13;10425586;28;20049;-75
2023/07/19 19:36:10;;;;;;;6.97;3.70;;;;;;;17.00;100.00;101175.16;10441954;28;20385;-77
2023/07/19 19:41:11;;;;;;;9.05;3.00;;;;;;;16.88;100.00;101176.56;10438563;28;20136;-75
2023/07/19 19:46:12;;;;;;;7.53;3.08;;;;;;;16.61;100.00;101187.28;10440237;28;20087;-76
2023/07/19 19:51:13;;;;;;;4.78;2.17;;;;;;;16.29;100.00;101200.47;10421905;28;20041;-76
2023/07/19 19:56:13;;;;;;;14.93;5.13;;;;;;;16.00;100.00;101208.41;10438311;28;20063;-76
2023/07/19 20:01:14;;;;;;;8.00;3.35;;;;;;;15.80;100.00;101208.63;10419930;28;20400;-77
2023/07/19 20:06:14;;;;;;;6.50;3.45;;;;;;;15.76;100.00;101209.38;10443692;28;20047;-76
2023/07/19 20:11:15;;;;;;;7.05;3.70;;;;;;;15.90;100.00;101211.59;10439595;28;20131;-76
2023/07/19 20:16:19;;;;;;;8.93;3.50;;;;;;;15.96;100.00;101212.69;10411953;28;20102;-77
2023/07/19 20:21:19;;;;;;;7.55;3.00;;;;;;;15.82;100.00;101212.22;10477889;28;20392;-76
2023/07/19 20:26:20;;;;;;;7.70;4.35;;;;;;;15.70;100.00;101215.38;10477908;28;20041;-77
2023/07/19 20:31:22;;;;;;;5.85;3.65;;;;;;;15.57;100.00;101221.09;10428055;28;20122;-76
2023/07/19 20:36:22;;;;;;;5.90;2.92;;;;;;;15.37;100.00;101230.97;10424576;28;20089;-76
2023/07/19 20:41:23;;;;;;;7.45;3.17;;;;;;;15.10;100.00;101248.56;10444278;28;20546;-76
2023/07/19 20:46:23;;;;;;;6.07;3.10;;;;;;;14.96;100.00;101257.69;10441696;28;20571;-76
2023/07/19 20:51:24;;;;;;;9.13;3.40;;;;;;;14.85;100.00;101256.41;10425866;28;20119;-76
2023/07/19 20:56:25;;;;;;;7.88;4.40;;;;;;;14.74;100.00;101259.56;10410689;28;20095;-76
2023/07/19 21:01:27;;;;;;;8.18;4.03;;;;;;;14.56;100.00;101264.09;10436592;28;20399;-76
2023/07/19 21:06:27;;;;;;;8.77;4.70;;;;;;;14.43;100.00;101263.66;10420631;28;20049;-76
2023/07/19 21:11:28;;;;;;;8.45;4.57;;;;;;;14.44;100.00;101264.53;10423409;28;20105;-76
2023/07/19 21:16:28;;;;;;;5.97;3.22;;;;;;;14.26;100.00;101267.34;10449373;28;20033;-77
2023/07/19 21:21:29;;;;;;;6.20;3.58;;;;;;;14.07;100.00;101259.63;10448396;28;20060;-77
2023/07/19 21:26:31;;;;;;;8.75;4.07;;;;;;;14.01;100.00;101267.28;10436366;28;20044;-76
2023/07/19 21:31:35;;;;;;;10.75;3.17;;;;;;;13.89;100.00;101269.41;10446270;28;20037;-76
2023/07/19 21:36:36;;;;;;;6.60;3.70;;;;;;;13.73;100.00;101268.78;10422036;28;20036;-76
2023/07/19 21:41:36;;;;;;;6.90;4.80;;;;;;;13.58;100.00;101268.16;10412779;28;20037;-76
2023/07/19 21:46:37;;;;;;;12.80;4.35;;;;;;;13.56;100.00;101265.47;10446523;28;20051;-77
2023/07/19 21:51:37;;;;;;;10.00;4.20;;;;;;;13.78;100.00;101269.88;10448352;28;20067;-76
2023/07/19 21:56:38;;;;;;;15.38;6.20;;;;;;;13.90;100.00;101263.31;10446003;28;20040;-75
2023/07/19 22:01:38;;;;;;;10.45;3.78;;;;;;;13.95;100.00;101267.94;10440670;28;20116;-76
2023/07/19 22:06:39;;;;;;;18.58;7.25;;;;;;;13.91;100.00;101273.91;10430230;28;20110;-76
2023/07/19 22:11:39;;;;;;;10.82;3.03;;;;;;;13.65;100.00;101270.19;10441479;28;20389;-76
2023/07/19 22:16:41;;;;;;;7.80;3.05;;;;;;;13.36;100.00;101270.75;10441486;28;20112;-76
2023/07/19 22:21:42;;;;;;;14.15;4.82;;;;;;;13.18;100.00;101269.97;10442606;28;20064;-76
2023/07/19 22:26:43;;;;;;;5.78;3.45;;;;;;;13.03;100.00;101280.69;10429203;28;20481;-77
2023/07/19 22:31:44;;;;;;;7.85;4.97;;;;;;;12.96;100.00;101290.03;10444893;28;20029;-76
2023/07/19 22:36:44;;;;;;;7.50;4.13;;;;;;;12.98;100.00;101295.34;10443544;28;20055;-76
2023/07/19 22:41:45;;;;;;;8.32;4.90;;;;;;;12.93;100.00;101292.53;10446903;28;20491;-77